Dati Storici

Data ora Umidita' aria (%) Temperatura aria (°C) Rad globale (W/m²) Gonioanemometro (°) Tacoanemometro (m/s) Pioggia (mm)
30-10-2012 00:10 82 % 5.703 0.862 306.638 0.183 0
30-10-2012 00:00 82.6 % 5.498 0.823 292.69 0.679 0
29-10-2012 23:50 82.4 % 5.636 1.131 21.333 0.465 0
29-10-2012 23:40 81.7 % 5.341 0.682 314.385 0.095 0
29-10-2012 23:30 80.5 % 5.218 0.502 1.194 0.239 0
29-10-2012 23:20 80.2 % 5.538 0.875 2.31 0.265 0
29-10-2012 23:10 79.3 % 5.772 0.952 96.813 0.702 0
29-10-2012 23:00 77.3 % 5.805 1.054 35.041 0.194 0
29-10-2012 22:50 73.8 % 6.043 1.098 56.659 0.567 0
29-10-2012 22:40 74.7 % 5.864 0.7 106.021 0.576 0
29-10-2012 22:30 71.9 % 6.302 0.812 76.119 0.139 0
29-10-2012 22:20 71.5 % 6.378 0.568 93.764 0.125 0
29-10-2012 22:10 69.5 % 6.561 0.145 89.172 0.203 0
29-10-2012 22:00 67.8 % 7.288 0.132 247.959 0.504 0
29-10-2012 21:50 67.4 % 7.398 0.196 274.657 0.845 0
29-10-2012 21:40 66 % 7.62 0.063 244.152 0.107 0
29-10-2012 21:30 65.4 % 7.808 0.089 258.783 0.547 0
29-10-2012 21:20 65.2 % 8.13 0.948 270.838 0.615 0
29-10-2012 21:10 65.2 % 7.956 1.226 286.935 0.315 0
29-10-2012 21:00 65.7 % 7.714 1.482 234.363 0.005 0

I dati sono presentati in modo automatico a scopo informativo. In seguito a verifica i dati possono subire modifiche o essere invalidati e non riportati negli archivi definitivi.